Time;durP1;ratioP1;P1;durP2;ratioP2;P2;SDS_P1;SDS_P2;PMS_P1;PMS_P2;Temp;Humidity;BMP_temperature;BMP_pressure;BME280_temperature;BME280_humidity;BME280_pressure;Samples;Min_cycle;Max_cycle;Signal;HPM_P1;HPM_P2
2022/03/24 00:00:37;;;;;;;44.83;20.92;;;7.70;91.00;;;;;;6188592;23;20007;-92
2022/03/24 00:03:03;;;;;;;50.42;22.45;;;7.60;91.10;;;;;;6162874;23;20008;-93
2022/03/24 00:05:30;;;;;;;53.25;22.77;;;7.60;91.30;;;;;;6189297;23;20013;-93
2022/03/24 00:08:00;;;;;;;51.85;22.90;;;7.50;91.40;;;;;;6161345;23;20011;-92
2022/03/24 00:10:27;;;;;;;51.60;23.20;;;7.50;91.60;;;;;;6161625;23;20017;-92
2022/03/24 00:12:52;;;;;;;50.33;23.45;;;7.50;91.80;;;;;;6184602;23;20008;-89
2022/03/24 00:15:19;;;;;;;48.35;21.52;;;7.50;92.00;;;;;;6185364;23;20001;-90
2022/03/24 00:17:45;;;;;;;55.83;23.63;;;7.50;92.10;;;;;;6187376;23;20459;-93
2022/03/24 00:20:14;;;;;;;47.40;21.65;;;7.50;92.30;;;;;;6189810;23;19997;-92
2022/03/24 00:22:40;;;;;;;52.33;23.38;;;7.50;92.30;;;;;;6161620;23;20020;-91
2022/03/24 00:25:06;;;;;;;48.88;21.33;;;7.50;92.40;;;;;;6161832;23;20049;-88
2022/03/24 00:27:32;;;;;;;55.78;22.00;;;7.50;92.50;;;;;;6163792;23;20064;-90
2022/03/24 00:29:58;;;;;;;56.60;24.67;;;7.40;92.60;;;;;;6165109;23;20013;-89
2022/03/24 00:32:24;;;;;;;47.45;22.48;;;7.40;92.70;;;;;;6166196;23;20421;-92
2022/03/24 00:34:54;;;;;;;52.08;23.75;;;7.40;92.80;;;;;;6194878;23;20009;-90
2022/03/24 00:37:19;;;;;;;51.88;23.92;;;7.30;92.90;;;;;;6204760;23;20037;-93
2022/03/24 00:39:45;;;;;;;54.88;23.83;;;7.30;92.90;;;;;;6181865;23;20004;-89
2022/03/24 00:42:14;;;;;;;52.67;22.80;;;7.30;93.00;;;;;;6180681;23;20013;-90
2022/03/24 00:44:42;;;;;;;54.50;24.63;;;7.20;93.20;;;;;;6210942;23;20048;-92
2022/03/24 00:47:10;;;;;;;50.15;23.73;;;7.10;93.30;;;;;;6183563;23;19993;-91
2022/03/24 00:49:36;;;;;;;53.70;23.52;;;7.10;93.40;;;;;;6175798;23;20149;-92
2022/03/24 00:52:02;;;;;;;58.88;22.60;;;7.00;93.60;;;;;;6167188;23;20386;-90
2022/03/24 00:54:28;;;;;;;54.60;23.05;;;7.00;93.80;;;;;;6170547;23;20111;-89
2022/03/24 00:56:53;;;;;;;51.38;23.25;;;6.90;93.90;;;;;;6172155;23;20032;-90
2022/03/24 00:59:22;;;;;;;53.33;23.35;;;6.90;94.10;;;;;;6180695;23;20008;-87
2022/03/24 01:01:48;;;;;;;52.20;24.05;;;6.80;94.30;;;;;;6174201;23;20005;-91
2022/03/24 01:04:14;;;;;;;57.85;23.45;;;6.80;94.50;;;;;;6171732;23;20021;-91
2022/03/24 01:06:39;;;;;;;50.72;24.00;;;6.80;94.60;;;;;;6172087;23;20009;-91
2022/03/24 01:09:05;;;;;;;51.88;23.15;;;6.70;94.70;;;;;;6168185;23;20011;-91
2022/03/24 01:11:31;;;;;;;45.60;21.63;;;6.70;94.90;;;;;;6163259;23;20001;-90
2022/03/24 01:13:58;;;;;;;55.03;24.70;;;6.60;95.10;;;;;;6162547;23;20044;-89
2022/03/24 01:16:24;;;;;;;58.67;25.33;;;6.60;95.30;;;;;;6162421;23;20557;-89
2022/03/24 01:18:52;;;;;;;50.05;23.30;;;6.60;95.40;;;;;;6161829;23;20064;-91
2022/03/24 01:21:18;;;;;;;56.80;24.38;;;6.50;95.60;;;;;;6161621;23;20005;-90
2022/03/24 01:23:45;;;;;;;54.08;23.73;;;6.50;95.80;;;;;;6161444;23;20083;-90
2022/03/24 01:26:11;;;;;;;60.85;25.60;;;6.50;96.00;;;;;;6161231;23;20005;-90
2022/03/24 01:28:38;;;;;;;56.08;24.77;;;6.50;96.10;;;;;;6187458;23;20032;-91
2022/03/24 01:31:05;;;;;;;53.97;24.70;;;6.40;96.30;;;;;;6157993;23;20023;-90
2022/03/24 01:33:31;;;;;;;53.25;24.70;;;6.40;96.50;;;;;;6164971;23;20010;-92
2022/03/24 01:35:57;;;;;;;51.58;23.98;;;6.40;96.70;;;;;;6066140;23;20442;-90
2022/03/24 01:38:23;;;;;;;55.75;24.15;;;6.30;96.90;;;;;;6165990;23;20015;-91
2022/03/24 01:40:49;;;;;;;59.40;26.50;;;6.30;97.20;;;;;;6167529;23;20015;-89
2022/03/24 01:43:17;;;;;;;60.45;24.67;;;6.30;97.30;;;;;;6068505;23;20117;-91
2022/03/24 01:45:43;;;;;;;60.30;26.13;;;6.30;97.40;;;;;;6171189;23;20086;-92
2022/03/24 01:48:08;;;;;;;59.42;25.30;;;6.20;97.60;;;;;;6165484;23;20045;-89
2022/03/24 01:50:39;;;;;;;59.28;25.50;;;6.20;97.80;;;;;;6165786;23;20003;-90
2022/03/24 01:53:05;;;;;;;54.35;23.55;;;6.20;98.00;;;;;;6066453;23;20472;-90
2022/03/24 01:55:33;;;;;;;63.42;24.83;;;6.10;98.10;;;;;;6167924;23;20034;-90
2022/03/24 01:57:59;;;;;;;60.95;25.58;;;6.10;98.30;;;;;;6069027;23;20025;-90
2022/03/24 02:00:24;;;;;;;54.47;24.65;;;6.10;98.50;;;;;;6166479;23;20034;-91
2022/03/24 02:02:53;;;;;;;54.03;24.17;;;6.00;98.70;;;;;;6165179;23;20010;-90
2022/03/24 02:05:19;;;;;;;55.63;23.17;;;6.00;98.80;;;;;;6064192;23;20011;-90
2022/03/24 02:07:44;;;;;;;56.65;24.63;;;6.00;99.40;;;;;;6165854;23;20015;-91
2022/03/24 02:10:11;;;;;;;61.17;23.75;;;6.00;99.30;;;;;;6166031;23;20007;-90
2022/03/24 02:12:37;;;;;;;57.95;24.48;;;5.90;99.40;;;;;;6165744;23;20022;-91
2022/03/24 02:15:04;;;;;;;51.95;23.05;;;5.90;99.60;;;;;;6041274;23;20007;-90
2022/03/24 02:17:30;;;;;;;61.60;25.27;;;5.80;99.80;;;;;;6065182;23;20021;-90
2022/03/24 02:19:59;;;;;;;55.78;23.73;;;5.80;99.90;;;;;;6065177;23;20007;-89
2022/03/24 02:22:28;;;;;;;57.78;24.45;;;5.80;99.90;;;;;;6064965;23;20053;-90
2022/03/24 02:24:54;;;;;;;63.03;25.13;;;5.70;99.90;;;;;;6164794;23;20053;-90
2022/03/24 02:27:22;;;;;;;57.97;25.83;;;5.70;99.90;;;;;;6065199;23;20312;-89
2022/03/24 02:29:49;;;;;;;55.78;24.17;;;5.70;99.90;;;;;;6184085;23;20103;-90
2022/03/24 02:32:20;;;;;;;58.05;25.27;;;5.70;99.90;;;;;;6185842;23;20433;-91
2022/03/24 02:34:48;;;;;;;58.00;25.80;;;5.60;99.90;;;;;;6160103;23;20074;-91
2022/03/24 02:37:20;;;;;;;60.90;25.77;;;5.60;99.90;;;;;;6186044;23;20020;-90
2022/03/24 02:39:50;;;;;;;54.38;24.20;;;5.60;99.90;;;;;;6186554;23;20008;-90
2022/03/24 02:42:17;;;;;;;;;;;5.60;99.90;;;;;;6160772;23;20425;-91
2022/03/24 02:44:45;;;;;;;57.00;24.40;;;5.50;99.90;;;;;;6186007;23;19927;-91
2022/03/24 02:47:12;;;;;;;54.25;23.15;;;5.40;99.90;;;;;;6185621;23;20057;-90
2022/03/24 02:49:39;;;;;;;55.85;24.23;;;5.40;99.90;;;;;;6186187;23;19993;-92
2022/03/24 02:52:05;;;;;;;58.83;24.08;;;5.40;99.90;;;;;;6159656;23;20036;-90
2022/03/24 02:54:32;;;;;;;55.65;25.05;;;5.40;99.90;;;;;;6159587;23;20455;-91
2022/03/24 02:56:58;;;;;;;57.20;24.10;;;5.30;99.90;;;;;;6159581;23;20095;-91
2022/03/24 02:59:25;;;;;;;54.60;23.30;;;5.40;99.90;;;;;;6161160;23;20013;-89
2022/03/24 03:01:54;;;;;;;60.22;24.40;;;5.30;99.90;;;;;;6161138;23;20005;-91
2022/03/24 03:04:20;;;;;;;56.03;23.95;;;5.30;99.90;;;;;;6161325;23;20017;-90
2022/03/24 03:06:46;;;;;;;59.47;25.60;;;5.40;99.90;;;;;;6161566;23;20034;-90
2022/03/24 03:09:16;;;;;;;63.70;25.35;;;5.40;99.90;;;;;;6187442;23;20005;-91
2022/03/24 03:11:44;;;;;;;59.03;25.17;;;5.40;99.90;;;;;;6161387;23;20012;-90
2022/03/24 03:14:11;;;;;;;61.10;26.23;;;5.30;99.90;;;;;;6162080;23;20002;-90
2022/03/24 03:16:38;;;;;;;56.30;26.00;;;5.30;99.90;;;;;;6205134;23;20008;-89
2022/03/24 03:19:04;;;;;;;62.08;25.42;;;5.20;99.90;;;;;;6161015;23;20475;-91
2022/03/24 03:21:30;;;;;;;61.72;25.15;;;5.10;99.90;;;;;;6187585;23;20424;-91
2022/03/24 03:23:56;;;;;;;57.90;25.42;;;5.00;99.90;;;;;;6187742;23;20036;-91
2022/03/24 03:26:23;;;;;;;59.13;25.10;;;4.90;99.90;;;;;;6161273;23;20008;-90
2022/03/24 03:28:52;;;;;;;52.75;22.95;;;4.90;99.90;;;;;;6186820;23;20498;-90
2022/03/24 03:31:22;;;;;;;60.10;24.63;;;4.90;99.90;;;;;;6159994;23;20024;-89
2022/03/24 03:33:50;;;;;;;63.60;26.45;;;4.80;99.90;;;;;;6160628;23;20451;-88
2022/03/24 03:36:16;;;;;;;63.70;25.42;;;4.80;99.90;;;;;;6160281;23;20009;-89
2022/03/24 03:38:42;;;;;;;67.18;25.95;;;4.80;99.90;;;;;;6186173;23;20065;-89
2022/03/24 03:41:07;;;;;;;71.85;27.73;;;4.80;99.90;;;;;;6160088;23;20428;-90
2022/03/24 03:43:33;;;;;;;66.47;28.73;;;4.80;99.90;;;;;;6186416;23;20010;-87
2022/03/24 03:46:00;;;;;;;63.28;25.98;;;4.80;99.90;;;;;;6161256;23;20005;-90
2022/03/24 03:48:26;;;;;;;64.18;26.60;;;4.80;99.90;;;;;;6162293;23;20024;-91
2022/03/24 03:50:52;;;;;;;58.47;25.42;;;4.80;99.90;;;;;;6186080;23;20009;-90
2022/03/24 03:53:17;;;;;;;63.83;26.45;;;4.70;99.90;;;;;;6160316;23;20005;-92
2022/03/24 03:55:43;;;;;;;55.47;23.85;;;4.70;99.90;;;;;;6160490;23;20017;-91
2022/03/24 03:58:11;;;;;;;54.15;23.65;;;4.70;99.90;;;;;;6159633;23;20353;-92
2022/03/24 04:03:31;;;;;;;54.97;23.50;;;4.60;99.90;;;;;;6186482;23;20071;-92
2022/03/24 04:06:01;;;;;;;57.85;23.80;;;4.70;99.90;;;;;;6159875;23;20001;-91
2022/03/24 04:08:30;;;;;;;59.53;24.67;;;4.70;99.90;;;;;;6186104;23;20005;-92
2022/03/24 04:10:56;;;;;;;63.17;25.50;;;4.70;99.90;;;;;;6159324;23;20244;-90
2022/03/24 04:13:22;;;;;;;65.28;27.13;;;4.70;99.90;;;;;;6159788;23;20482;-92
2022/03/24 04:15:49;;;;;;;66.07;26.38;;;4.70;99.90;;;;;;6160111;23;20029;-91
2022/03/24 04:18:16;;;;;;;64.53;26.13;;;4.60;99.90;;;;;;6159351;23;20038;-91
2022/03/24 04:20:42;;;;;;;57.25;24.50;;;4.50;99.90;;;;;;6159362;23;20059;-91
2022/03/24 04:23:08;;;;;;;63.10;25.95;;;4.50;99.90;;;;;;6159302;23;20020;-91
2022/03/24 04:25:34;;;;;;;60.20;26.17;;;4.40;99.90;;;;;;6159726;23;20033;-91
2022/03/24 04:28:01;;;;;;;63.97;26.95;;;4.40;99.90;;;;;;6186448;23;19997;-90
2022/03/24 04:30:27;;;;;;;66.20;26.40;;;4.40;99.90;;;;;;6147898;23;20035;-89
2022/03/24 04:32:54;;;;;;;63.53;25.25;;;4.40;99.90;;;;;;6146459;23;20010;-90
2022/03/24 04:35:20;;;;;;;64.70;25.95;;;4.30;99.90;;;;;;6145493;23;20074;-91
2022/03/24 04:37:47;;;;;;;77.32;27.75;;;4.30;99.90;;;;;;6136369;23;20038;-88
2022/03/24 04:40:15;;;;;;;61.45;26.15;;;4.30;99.90;;;;;;6135219;23;20008;-90
2022/03/24 04:42:46;;;;;;;65.03;26.52;;;4.30;99.90;;;;;;6134300;23;20015;-91
2022/03/24 04:45:13;;;;;;;67.85;26.35;;;4.30;99.90;;;;;;6134858;23;20003;-91
2022/03/24 04:47:40;;;;;;;65.30;25.92;;;4.20;99.90;;;;;;6135168;23;20549;-90
2022/03/24 04:50:06;;;;;;;68.95;26.55;;;4.20;99.90;;;;;;6134616;23;20007;-91
2022/03/24 04:52:32;;;;;;;64.65;25.58;;;4.20;99.90;;;;;;6134299;23;20045;-90
2022/03/24 04:55:01;;;;;;;66.45;26.92;;;4.20;99.90;;;;;;6035331;23;20000;-88
2022/03/24 04:57:27;;;;;;;73.38;28.35;;;4.30;99.90;;;;;;6134212;23;20015;-89
2022/03/24 04:59:54;;;;;;;72.90;27.50;;;4.30;99.90;;;;;;6133807;23;20012;-90
2022/03/24 05:02:19;;;;;;;65.05;26.20;;;4.30;99.90;;;;;;6133928;23;20038;-90
2022/03/24 05:04:46;;;;;;;68.07;27.25;;;4.30;99.90;;;;;;6133584;23;20435;-90
2022/03/24 05:07:12;;;;;;;63.83;25.52;;;4.30;99.90;;;;;;6134429;23;20386;-87
2022/03/24 05:09:38;;;;;;;70.30;26.90;;;4.30;99.90;;;;;;6035480;23;20008;-90
2022/03/24 05:12:05;;;;;;;62.17;25.65;;;4.30;99.90;;;;;;6036276;23;20078;-89
2022/03/24 05:14:33;;;;;;;58.10;25.50;;;4.30;99.90;;;;;;6134673;23;20034;-90
2022/03/24 05:16:59;;;;;;;67.20;27.52;;;4.20;99.90;;;;;;6134609;23;20381;-88
2022/03/24 05:19:25;;;;;;;70.20;28.27;;;4.30;99.90;;;;;;6134529;23;20016;-89
2022/03/24 05:21:51;;;;;;;71.00;27.42;;;4.20;99.90;;;;;;6134215;23;20003;-90
2022/03/24 05:24:17;;;;;;;68.03;27.45;;;4.30;99.90;;;;;;6133890;23;20066;-91
2022/03/24 05:26:43;;;;;;;68.95;28.23;;;4.20;99.90;;;;;;6033320;23;19999;-91
2022/03/24 05:29:08;;;;;;;69.03;26.55;;;4.20;99.90;;;;;;6134648;23;20011;-90
2022/03/24 05:31:34;;;;;;;68.70;27.52;;;4.20;99.90;;;;;;6159092;23;20029;-87
2022/03/24 05:34:00;;;;;;;69.38;28.20;;;4.20;99.90;;;;;;6158999;23;20028;-90
2022/03/24 05:36:25;;;;;;;71.20;27.52;;;4.20;99.90;;;;;;6159696;23;20516;-89
2022/03/24 05:38:51;;;;;;;62.28;24.90;;;4.20;99.90;;;;;;6158959;23;20431;-90
2022/03/24 05:41:18;;;;;;;75.70;30.58;;;4.20;99.90;;;;;;6184916;23;20001;-89
2022/03/24 05:46:33;;;;;;;75.38;28.10;;;4.20;99.90;;;;;;6185168;23;20345;-90
2022/03/24 05:49:01;;;;;;;69.65;28.15;;;4.20;99.90;;;;;;6159352;23;20020;-91
2022/03/24 05:51:27;;;;;;;76.38;27.35;;;4.10;99.90;;;;;;6188441;23;20011;-90
2022/03/24 05:53:53;;;;;;;60.28;25.08;;;3.90;99.90;;;;;;6179420;23;20425;-90
2022/03/24 05:56:19;;;;;;;64.03;24.65;;;3.80;99.90;;;;;;6188247;23;20005;-92
2022/03/24 05:58:46;;;;;;;59.75;26.50;;;3.70;99.90;;;;;;6160868;23;20017;-91
2022/03/24 06:01:15;;;;;;;65.93;27.95;;;3.70;99.90;;;;;;6160299;23;20005;-91
2022/03/24 06:03:44;;;;;;;64.70;25.67;;;3.60;99.90;;;;;;6160018;23;20075;-90
2022/03/24 06:06:10;;;;;;;73.75;28.95;;;3.60;99.90;;;;;;6160162;23;20024;-90
2022/03/24 06:08:36;;;;;;;68.70;27.08;;;3.60;99.90;;;;;;6159987;23;20437;-90
2022/03/24 06:11:04;;;;;;;70.00;26.70;;;3.50;99.90;;;;;;6159843;23;20009;-90
2022/03/24 06:13:30;;;;;;;71.30;28.35;;;3.50;99.90;;;;;;6159949;23;20037;-90
2022/03/24 06:15:58;;;;;;;65.15;26.35;;;3.50;99.90;;;;;;6159739;23;20001;-90
2022/03/24 06:18:24;;;;;;;74.78;29.02;;;3.50;99.90;;;;;;6159537;23;20013;-91
2022/03/24 06:20:49;;;;;;;68.97;26.90;;;3.50;99.90;;;;;;6186191;23;20012;-89
2022/03/24 06:23:15;;;;;;;78.03;28.73;;;3.60;99.90;;;;;;6160019;23;20009;-92
2022/03/24 06:25:43;;;;;;;76.35;29.35;;;3.60;99.90;;;;;;6160468;23;20401;-90
2022/03/24 06:28:09;;;;;;;77.80;29.15;;;3.60;99.90;;;;;;6159942;23;20073;-90
2022/03/24 06:30:35;;;;;;;74.45;29.20;;;3.60;99.90;;;;;;6201551;23;20013;-90
2022/03/24 06:33:01;;;;;;;73.70;30.30;;;3.60;99.90;;;;;;6216508;23;20031;-91
2022/03/24 06:35:27;;;;;;;71.28;29.17;;;3.60;99.90;;;;;;6190896;23;20004;-91
2022/03/24 06:37:53;;;;;;;73.93;28.92;;;3.60;99.90;;;;;;6190237;23;20019;-90
2022/03/24 06:40:19;;;;;;;75.50;29.77;;;3.60;99.90;;;;;;6191011;23;20395;-92
2022/03/24 06:42:45;;;;;;;74.10;29.63;;;3.60;99.90;;;;;;6217889;23;20027;-91
2022/03/24 06:45:13;;;;;;;74.28;29.40;;;3.60;99.90;;;;;;6191127;23;20005;-91
2022/03/24 06:47:40;;;;;;;65.55;26.02;;;3.60;99.90;;;;;;6191140;23;20013;-88
2022/03/24 06:50:10;;;;;;;75.70;28.38;;;3.60;99.90;;;;;;6191021;23;19997;-89
2022/03/24 06:52:36;;;;;;;74.03;28.35;;;3.60;99.90;;;;;;6196325;23;20015;-87
2022/03/24 06:55:03;;;;;;;71.03;28.63;;;3.60;99.90;;;;;;6197613;23;20005;-89
2022/03/24 06:57:29;;;;;;;75.28;30.13;;;3.60;99.90;;;;;;6202344;23;20089;-89
2022/03/24 06:59:55;;;;;;;70.50;26.77;;;3.60;99.90;;;;;;6201645;23;20001;-86
2022/03/24 07:02:20;;;;;;;81.25;30.70;;;3.60;99.90;;;;;;6199436;23;20012;-89
2022/03/24 07:04:47;;;;;;;79.45;31.30;;;3.60;99.90;;;;;;6223243;23;20368;-89
2022/03/24 07:07:13;;;;;;;81.75;30.10;;;3.60;99.90;;;;;;6192515;23;20071;-89
2022/03/24 07:09:39;;;;;;;78.13;29.45;;;3.60;99.90;;;;;;6190672;23;20021;-89
2022/03/24 07:12:06;;;;;;;79.03;29.55;;;3.60;99.90;;;;;;6196848;23;20009;-88
2022/03/24 07:14:32;;;;;;;73.25;29.45;;;3.70;99.90;;;;;;6196381;23;20340;-88
2022/03/24 07:16:58;;;;;;;78.07;31.90;;;3.70;99.90;;;;;;6194223;23;20005;-89
2022/03/24 07:19:24;;;;;;;81.32;31.25;;;3.70;99.90;;;;;;6191100;23;20219;-90
2022/03/24 07:21:49;;;;;;;80.35;29.40;;;3.80;99.90;;;;;;6190856;23;20031;-88
2022/03/24 07:24:16;;;;;;;87.53;31.35;;;3.80;99.90;;;;;;6189954;23;20008;-90
2022/03/24 07:26:42;;;;;;;84.13;31.00;;;3.80;99.90;;;;;;6190380;23;20001;-90
2022/03/24 07:29:10;;;;;;;94.20;33.85;;;3.80;99.90;;;;;;6190442;23;20017;-88
2022/03/24 07:31:36;;;;;;;87.30;33.30;;;3.90;99.90;;;;;;6191378;23;20019;-90
2022/03/24 07:34:02;;;;;;;82.35;31.48;;;3.90;99.90;;;;;;6190570;23;20032;-90
2022/03/24 07:36:28;;;;;;;83.68;31.08;;;4.00;99.90;;;;;;6190056;23;20000;-90
2022/03/24 07:38:56;;;;;;;90.68;33.22;;;4.00;99.90;;;;;;6188942;23;20020;-88
2022/03/24 07:41:22;;;;;;;79.65;31.23;;;4.00;99.90;;;;;;6191769;23;20505;-90
2022/03/24 07:43:49;;;;;;;82.97;30.52;;;4.10;99.90;;;;;;6191518;23;20015;-90
2022/03/24 07:46:15;;;;;;;100.00;32.83;;;4.10;99.90;;;;;;6193385;23;20009;-89
2022/03/24 07:48:46;;;;;;;78.70;29.73;;;4.10;99.90;;;;;;6211994;23;20059;-90
2022/03/24 07:51:12;;;;;;;90.93;31.85;;;4.20;99.90;;;;;;6231020;23;20081;-90
2022/03/24 07:53:38;;;;;;;73.68;28.55;;;4.20;99.90;;;;;;6198691;23;20007;-90
2022/03/24 07:56:04;;;;;;;80.45;31.60;;;4.30;99.90;;;;;;6193637;23;20005;-90
2022/03/24 07:58:31;;;;;;;81.45;30.83;;;4.30;99.90;;;;;;6192705;23;20019;-89
2022/03/24 08:00:57;;;;;;;89.55;32.15;;;4.40;99.90;;;;;;6192913;23;20008;-89
2022/03/24 08:03:24;;;;;;;85.55;32.25;;;4.40;99.90;;;;;;6194865;23;20561;-89
2022/03/24 08:05:49;;;;;;;82.10;31.60;;;4.50;99.90;;;;;;6194038;23;20344;-89
2022/03/24 08:08:16;;;;;;;82.30;31.38;;;4.50;99.90;;;;;;6192722;23;20091;-88
2022/03/24 08:10:44;;;;;;;84.97;32.78;;;4.60;99.90;;;;;;6194313;23;20001;-88
2022/03/24 08:13:12;;;;;;;88.72;32.38;;;4.70;99.90;;;;;;6212800;23;19997;-89
2022/03/24 08:15:38;;;;;;;88.70;33.08;;;4.80;99.90;;;;;;6241962;23;20005;-87
2022/03/24 08:18:06;;;;;;;69.95;27.00;;;4.90;99.90;;;;;;6215826;23;20020;-90
2022/03/24 08:20:32;;;;;;;69.15;27.20;;;5.00;99.90;;;;;;6215656;23;20019;-92
2022/03/24 08:22:59;;;;;;;72.00;29.00;;;5.10;99.90;;;;;;6211606;23;20039;-92
2022/03/24 08:25:25;;;;;;;72.03;27.88;;;5.30;99.90;;;;;;6205326;23;20004;-91
2022/03/24 08:27:50;;;;;;;94.20;31.85;;;5.40;99.90;;;;;;6201291;23;20009;-91
2022/03/24 08:33:00;;;;;;;76.63;30.40;;;5.70;99.90;;;;;;6221706;23;20380;-89
2022/03/24 08:35:27;;;;;;;72.65;29.60;;;5.90;99.90;;;;;;6194942;23;20013;-91
2022/03/24 08:37:55;;;;;;;83.80;33.03;;;6.00;99.90;;;;;;6224367;23;20088;-91
2022/03/24 08:40:21;;;;;;;70.30;28.98;;;6.10;99.90;;;;;;6226417;23;20004;-90
2022/03/24 08:42:47;;;;;;;74.10;29.70;;;6.30;99.90;;;;;;6221395;23;20336;-89
2022/03/24 08:45:15;;;;;;;69.20;30.42;;;6.40;99.90;;;;;;6193441;23;20104;-91
2022/03/24 08:47:41;;;;;;;82.63;32.63;;;6.60;99.90;;;;;;6218089;23;20030;-90
2022/03/24 08:50:08;;;;;;;82.85;32.92;;;6.70;99.90;;;;;;6191686;23;20000;-90
2022/03/24 08:54:59;;;;;;;89.97;32.13;;;7.00;99.90;;;;;;6137773;23;20267;-90
2022/03/24 08:59:56;;;;;;;82.53;34.67;;;7.20;99.90;;;;;;6143412;23;20015;-92
2022/03/24 09:02:22;;;;;;;87.60;35.53;;;7.40;99.90;;;;;;6219582;23;20008;-92
2022/03/24 09:04:48;;;;;;;88.90;34.60;;;7.50;99.90;;;;;;6193131;23;20005;-91
2022/03/24 09:07:15;;;;;;;88.07;35.88;;;7.60;99.90;;;;;;6196345;23;20012;-92
2022/03/24 09:09:41;;;;;;;87.10;34.00;;;7.70;99.90;;;;;;6170669;23;20020;-91
2022/03/24 09:12:09;;;;;;;86.90;31.83;;;7.90;99.90;;;;;;6218356;23;20001;-94
2022/03/24 09:14:37;;;;;;;75.18;32.05;;;8.00;99.90;;;;;;6194474;23;20506;-92
2022/03/24 09:17:03;;;;;;;76.03;32.25;;;8.20;99.90;;;;;;6192927;23;20059;-93
2022/03/24 09:19:29;;;;;;;85.45;33.45;;;8.30;99.90;;;;;;6219460;23;20008;-92
2022/03/24 09:21:55;;;;;;;82.43;34.22;;;8.50;99.90;;;;;;6192741;23;20020;-92
2022/03/24 09:24:21;;;;;;;88.38;33.85;;;8.70;99.90;;;;;;6192692;23;20004;-93
2022/03/24 09:26:47;;;;;;;79.38;33.65;;;8.80;99.90;;;;;;6192040;23;20055;-93
2022/03/24 09:29:14;;;;;;;81.88;34.45;;;9.00;99.90;;;;;;6191923;23;20004;-93
2022/03/24 09:31:40;;;;;;;79.63;32.35;;;9.10;99.90;;;;;;6168442;23;20150;-93
2022/03/24 09:34:06;;;;;;;76.50;32.40;;;9.40;99.90;;;;;;6187890;23;20036;-92
2022/03/24 09:36:31;;;;;;;83.80;32.22;;;9.60;99.90;;;;;;6188592;23;19997;-92
2022/03/24 09:38:57;;;;;;;79.25;34.67;;;9.80;99.90;;;;;;6161663;23;20456;-92
2022/03/24 09:41:27;;;;;;;80.82;33.17;;;10.00;99.90;;;;;;6162514;23;20448;-93
2022/03/24 09:43:53;;;;;;;81.97;32.80;;;10.30;99.90;;;;;;6161716;23;20036;-93
2022/03/24 09:46:20;;;;;;;77.95;32.08;;;10.50;99.90;;;;;;6168362;23;20020;-93
2022/03/24 09:48:48;;;;;;;80.88;31.60;;;10.70;99.90;;;;;;6173729;23;20016;-93
2022/03/24 09:51:14;;;;;;;78.72;31.80;;;10.90;99.90;;;;;;6166116;23;20048;-93
2022/03/24 09:53:41;;;;;;;69.50;31.80;;;11.20;99.90;;;;;;6189344;23;20005;-91
2022/03/24 09:56:07;;;;;;;72.03;32.78;;;11.40;99.90;;;;;;6161801;23;20467;-93
2022/03/24 09:58:33;;;;;;;75.18;32.97;;;11.60;99.90;;;;;;6165588;23;20020;-91
2022/03/24 10:01:01;;;;;;;78.75;31.55;;;11.90;99.90;;;;;;6204590;23;20168;-94
2022/03/24 10:03:26;;;;;;;69.68;30.15;;;12.10;99.90;;;;;;6171260;23;19989;-92
2022/03/24 10:06:06;;;;;;;70.57;30.17;;;12.30;99.90;;;;;;6211466;23;20004;-92
2022/03/24 10:08:33;;;;;;;76.93;32.80;;;12.50;98.80;;;;;;6178817;23;20328;-92
2022/03/24 10:11:05;;;;;;;76.53;32.67;;;12.80;98.00;;;;;;6194849;23;20005;-92
2022/03/24 10:13:41;;;;;;;;;;;13.10;97.00;;;;;;6170336;23;20011;-94
2022/03/24 10:16:08;;;;;;;69.95;29.73;;;13.40;96.10;;;;;;6193544;23;19907;-92
2022/03/24 10:18:34;;;;;;;66.07;29.08;;;13.70;95.50;;;;;;6163083;23;20075;-93
2022/03/24 10:21:08;;;;;;;72.35;32.20;;;14.00;94.50;;;;;;6162215;23;20001;-94
2022/03/24 10:23:43;;;;;;;69.60;29.98;;;14.30;93.50;;;;;;6187507;23;20005;-95
2022/03/24 10:26:08;;;;;;;73.22;30.48;;;14.60;92.40;;;;;;6187351;23;20001;-93
2022/03/24 10:28:34;;;;;;;78.05;31.75;;;14.90;91.40;;;;;;6161406;23;20016;-95
2022/03/24 10:31:02;;;;;;;75.03;31.67;;;15.20;90.60;;;;;;6160643;23;20470;-94
2022/03/24 10:33:30;;;;;;;73.43;32.22;;;15.40;90.00;;;;;;6187848;23;20001;-93
2022/03/24 10:36:12;;;;;;;82.07;34.53;;;15.80;87.50;;;;;;6163265;23;20005;-91
2022/03/24 10:38:41;;;;;;;70.30;31.63;;;16.20;85.40;;;;;;6161921;23;20096;-93
2022/03/24 10:41:21;;;;;;;80.90;33.58;;;16.50;84.30;;;;;;6186234;23;20009;-91
2022/03/24 10:43:51;;;;;;;74.50;33.22;;;16.70;82.30;;;;;;6186576;23;20076;-91
2022/03/24 10:46:36;;;;;;;76.68;32.75;;;17.00;81.10;;;;;;6159723;23;20009;-92
2022/03/24 10:49:23;;;;;;;75.20;32.60;;;17.20;80.10;;;;;;6184938;23;20012;-91
2022/03/24 10:51:51;;;;;;;75.32;32.67;;;17.50;78.40;;;;;;6185775;23;20088;-90
2022/03/24 10:54:44;;;;;;;75.05;32.08;;;17.70;77.50;;;;;;6185989;23;20036;-92
2022/03/24 10:57:15;;;;;;;74.10;33.15;;;18.10;76.10;;;;;;6159275;23;20021;-93
2022/03/24 10:59:58;;;;;;;80.93;34.35;;;18.40;74.90;;;;;;6159278;23;20503;-91
2022/03/24 11:02:25;;;;;;;76.90;34.67;;;18.60;73.30;;;;;;6189823;23;20455;-92
2022/03/24 11:04:51;;;;;;;77.53;32.33;;;18.90;72.60;;;;;;6190798;23;20005;-92
2022/03/24 11:07:27;;;;;;;76.07;33.63;;;19.10;71.30;;;;;;6161037;23;20016;-93
2022/03/24 11:09:52;;;;;;;71.78;31.27;;;19.50;70.00;;;;;;6163025;23;20005;-93
2022/03/24 11:12:36;;;;;;;66.65;30.30;;;19.70;69.10;;;;;;6189581;23;20547;-91
2022/03/24 11:15:04;;;;;;;65.68;31.05;;;19.80;67.50;;;;;;6194338;23;20000;-92
2022/03/24 11:17:33;;;;;;;70.40;29.63;;;19.80;67.30;;;;;;6202402;23;20111;-91
2022/03/24 11:20:04;;;;;;;72.78;29.92;;;19.80;66.20;;;;;;6163891;23;20001;-92
2022/03/24 11:22:48;;;;;;;67.07;30.80;;;19.60;64.80;;;;;;6161647;23;20408;-92
2022/03/24 11:25:14;;;;;;;72.43;30.45;;;19.30;64.70;;;;;;6188427;23;20012;-92
2022/03/24 11:27:40;;;;;;;67.93;29.30;;;19.20;65.30;;;;;;6188023;23;20009;-91
2022/03/24 11:30:08;;;;;;;67.13;27.10;;;19.00;65.10;;;;;;6165762;23;20440;-92
2022/03/24 11:32:36;;;;;;;62.95;26.60;;;18.90;65.20;;;;;;6216268;23;20021;-91
2022/03/24 11:35:05;;;;;;;61.05;26.25;;;18.80;65.20;;;;;;6222344;23;20432;-92
2022/03/24 11:37:32;;;;;;;61.13;27.08;;;18.70;64.70;;;;;;6194693;23;20017;-92
2022/03/24 11:40:24;;;;;;;58.35;24.90;;;18.70;64.20;;;;;;6223230;23;19996;-91
2022/03/24 11:43:13;;;;;;;63.60;26.27;;;18.60;63.80;;;;;;6212170;23;20452;-93
2022/03/24 11:45:39;;;;;;;65.47;28.45;;;18.50;63.60;;;;;;6225238;23;20000;-93
2022/03/24 11:48:07;;;;;;;63.97;26.90;;;18.40;63.10;;;;;;6191503;23;20008;-93
2022/03/24 11:50:48;;;;;;;59.05;27.55;;;18.30;62.60;;;;;;6191936;23;20436;-91
2022/03/24 11:53:16;;;;;;;65.78;27.83;;;18.20;62.50;;;;;;6218059;23;20005;-92
2022/03/24 11:56:06;;;;;;;64.65;26.10;;;18.20;62.80;;;;;;6218479;23;20409;-92
2022/03/24 11:58:38;;;;;;;66.57;29.38;;;18.10;63.20;;;;;;6179961;23;20020;-93
2022/03/24 12:01:24;;;;;;;61.67;28.30;;;18.00;63.10;;;;;;6191227;23;20088;-94
2022/03/24 12:04:00;;;;;;;56.38;26.42;;;17.90;62.90;;;;;;6196560;23;20027;-92
2022/03/24 12:06:41;;;;;;;65.00;27.05;;;17.80;63.10;;;;;;6229731;23;20408;-91
2022/03/24 12:09:08;;;;;;;;;;;17.80;63.00;;;;;;6226960;23;20417;-91
2022/03/24 12:11:33;;;;;;;67.20;28.95;;;17.70;63.00;;;;;;6199899;23;19962;-91
2022/03/24 12:14:04;;;;;;;63.85;27.67;;;17.70;63.10;;;;;;6200639;23;20024;-90
2022/03/24 12:16:31;;;;;;;57.38;26.23;;;17.60;62.90;;;;;;6199453;23;20015;-90
2022/03/24 12:18:57;;;;;;;60.47;27.23;;;17.60;63.00;;;;;;6196730;23;20020;-90
2022/03/24 12:21:23;;;;;;;60.15;26.35;;;17.50;62.90;;;;;;6208275;23;20004;-90
2022/03/24 12:24:08;;;;;;;59.97;26.00;;;17.50;62.60;;;;;;6227080;23;20123;-91
2022/03/24 12:26:48;;;;;;;66.53;28.60;;;17.50;62.50;;;;;;6200197;23;20007;-90
2022/03/24 12:29:16;;;;;;;55.40;27.55;;;17.50;62.00;;;;;;6226789;23;20028;-91
2022/03/24 12:31:58;;;;;;;60.17;26.88;;;17.50;62.00;;;;;;6198211;23;20027;-90
2022/03/24 12:34:37;;;;;;;57.97;25.17;;;17.60;61.80;;;;;;6202927;23;20012;-91
2022/03/24 12:37:03;;;;;;;56.17;24.70;;;17.60;61.70;;;;;;6197250;23;20427;-91
2022/03/24 12:39:31;;;;;;;49.08;22.83;;;17.60;61.40;;;;;;6191088;23;20036;-90
2022/03/24 12:42:10;;;;;;;52.83;23.95;;;17.60;61.30;;;;;;6224169;23;19996;-89
2022/03/24 12:44:58;;;;;;;52.08;22.60;;;17.60;61.20;;;;;;6194573;23;20031;-89
2022/03/24 12:47:38;;;;;;;52.50;23.83;;;17.60;61.10;;;;;;6191657;23;20000;-89
2022/03/24 12:50:09;;;;;;;53.53;24.92;;;17.60;60.80;;;;;;6216916;23;20127;-89
2022/03/24 12:52:53;;;;;;;78.53;34.10;;;17.70;60.70;;;;;;6216973;23;20004;-91